Hebertville, Canada
Current Conditions -  °F | °C
As of 2:00 PM on Saturday 25 Oct 2014 (Local Time) from CYRJ Reporting Station
Broken Clouds Broken Clouds  
Wind Chill: 52°   Ceiling: 6500
Heat Index: 52°   Visibility: 40mi
Dew Point: 37°   Wind: 5mph
Humidity: 58%   Direction: 100°E
Pressure: 29.47"   Gusts: NA
Location:  48.4°N, 71.68°W
Report Text: CYRJ 251800Z 10004KT 080V140 40SM BKN065 11/03 A2947 RMK SC7 SLP983 DENSITY ALT 700FT
Loading
Personal Weather Stations






























Interactive Weather Map
Tropical Storm Tracking
New forecast layout! Learn more

10-Day Weather Forecast

Advertisements
Track Severe Weather on mobile